Home > Products > Valid Products > TAF

000
FTUS43 KTOP 310500
TAFTOP
TAF
KTOP 310531Z 3106/0106 17007KT P6SM SCT040 OVC090
     FM310800 17006KT P6SM -SHRA OVC040
     FM311000 16005KT 5SM -RA BKN015 OVC027
     FM311700 15009KT 4SM -RA BR OVC007=



000
FTUS43 KTOP 302300
TAFTOP
TAF
KTOP 302320Z 3100/3124 15006KT P6SM OVC150
     FM310900 17006KT P6SM -SHRA BKN025 OVC040
     FM311100 16005KT 5SM -RA BKN015 OVC027
     FM311600 15009KT 3SM -RA BR OVC007=



000
FTUS43 KTOP 301700
TAFTOP
TAF
KTOP 301736Z 3018/3118 16005KT P6SM OVC180
     FM310700 17004KT P6SM -SHRA OVC040
     FM311100 16005KT 5SM -RA SCT015 OVC027=



000
FTUS43 KTOP 301100
TAFTOP
TAF
KTOP 301133Z 3012/3112 09003KT P6SM SCT250
     FM301700 16005KT P6SM BKN180
     FM310800 17004KT 6SM -RA OVC040=



000
FTUS43 KTOP 300500
TAFTOP
TAF
KTOP 300529Z 3006/3106 35002KT P6SM FEW250
     FM301800 18005KT P6SM BKN200=



000
FTUS43 KTOP 292300
TAFTOP
TAF
KTOP 292320Z 3000/3024 35005KT P6SM SKC
     FM301800 18006KT P6SM BKN250=



000
FTUS43 KTOP 292200 AAA
TAFTOP
TAF AMD
KTOP 292217Z 2922/3018 34015KT P6SM BKN035
     FM300000 VRB03KT P6SM SKC=



000
FTUS43 KTOP 291700
TAFTOP
TAF
KTOP 291720Z 2918/3018 34017G25KT P6SM BKN035
     FM300000 VRB03KT P6SM SKC=



000
FTUS43 KTOP 291600 AAA
TAFTOP
TAF AMD
KTOP 291623Z 2916/3012 34017G25KT P6SM BKN035
     FM300000 35005KT P6SM SKC=



000
FTUS43 KTOP 291100
TAFTOP
TAF
KTOP 291120Z 2912/3012 33018G26KT P6SM OVC024
     FM291800 34017G25KT P6SM BKN035
     FM300000 35005KT P6SM SKC=



000
FTUS43 KTOP 290600 AAA
TAFTOP
TAF AMD
KTOP 290656Z 2907/3006 31014G21KT P6SM FEW250
     FM290800 34018G27KT P6SM OVC024
     FM291900 34014G21KT P6SM SCT025
     FM300000 34009KT P6SM SKC=



000
FTUS43 KTOP 290500
TAFTOP
TAF
KTOP 290527Z 2906/3006 31014G21KT P6SM FEW250
     FM290900 34018G27KT P6SM BKN020
     FM291900 34014G21KT P6SM SCT025
     FM300000 34009KT P6SM SKC=



000
FTUS43 KTOP 282300
TAFTOP
TAF
KTOP 282328Z 2900/2924 26010KT P6SM SCT250
     FM290400 31015G23KT P6SM FEW250
     FM290800 33018G27KT P6SM BKN020
     FM292000 34013KT P6SM SCT025=



000
FTUS43 KTOP 282200 AAA
TAFTOP
TAF AMD
KTOP 282216Z 2822/2918 24016G22KT P6SM SCT250
     FM290000 26009KT P6SM FEW250
     FM290400 31015G23KT P6SM FEW250
     FM290800 33017G26KT P6SM BKN020=



000
FTUS43 KTOP 281700
TAFTOP
TAF
KTOP 281720Z 2818/2918 19015G22KT P6SM SCT250
     FM282300 24006KT P6SM FEW250
     FM290400 31015G23KT P6SM FEW250
     FM290800 33017G26KT P6SM BKN020=



000
FTUS43 KTOP 281100
TAFTOP
TAF
KTOP 281120Z 2812/2912 16008KT P6SM FEW250
     FM281700 20015G22KT P6SM SCT250
     FM282300 25008KT P6SM FEW250
     FM290430 32015G23KT P6SM FEW250
     FM290900 33017G26KT P6SM BKN025=



    US Dept of Commerce
    National Oceanic and Atmospheric Administration
    National Weather Service
    1325 East West Highway
    Silver Spring, MD 20910
    Page Author: NWS Internet Services Team
Disclaimer
Information Quality
Credits
Glossary
Privacy Policy
Freedom of Information Act (FOIA)
About Us
Career Opportunities